Time;durP1;ratioP1;P1;durP2;ratioP2;P2;SDS_P1;SDS_P2;PMS_P1;PMS_P2;Temp;Humidity;BMP_temperature;BMP_pressure;BME280_temperature;BME280_humidity;BME280_pressure;Samples;Min_cycle;Max_cycle;Signal;HPM_P1;HPM_P2
2022/05/27 00:01:45;;;;;;;12.82;5.53;;;14.10;99.90;;;;;;5027062;28;20555;-72
2022/05/27 00:04:10;;;;;;;10.13;4.78;;;14.10;99.90;;;;;;4992876;28;20164;-72
2022/05/27 00:06:36;;;;;;;15.02;5.70;;;14.10;99.90;;;;;;5024758;28;20156;-72
2022/05/27 00:09:02;;;;;;;10.60;4.75;;;14.10;99.90;;;;;;5010727;28;20057;-73
2022/05/27 00:11:28;;;;;;;13.48;5.18;;;14.10;99.90;;;;;;5011469;28;20049;-73
2022/05/27 00:13:54;;;;;;;11.82;4.40;;;14.00;99.90;;;;;;5025097;28;20438;-72
2022/05/27 00:16:21;;;;;;;9.60;4.40;;;14.10;99.90;;;;;;5028268;28;20045;-72
2022/05/27 00:18:46;;;;;;;12.68;5.70;;;14.00;99.90;;;;;;5028430;28;20079;-73
2022/05/27 00:21:15;;;;;;;11.35;4.35;;;14.00;99.90;;;;;;5025554;28;20381;-73
2022/05/27 00:23:42;;;;;;;8.10;3.78;;;13.90;99.90;;;;;;5011455;28;20128;-73
2022/05/27 00:26:08;;;;;;;13.23;4.60;;;13.90;99.90;;;;;;5035891;28;20061;-73
2022/05/27 00:28:34;;;;;;;8.55;3.88;;;13.90;99.90;;;;;;5011579;28;20104;-73
2022/05/27 00:31:00;;;;;;;9.15;4.38;;;13.80;99.90;;;;;;5026316;28;20045;-72
2022/05/27 00:33:26;;;;;;;8.35;4.38;;;13.80;99.90;;;;;;5011023;28;20049;-72
2022/05/27 00:35:51;;;;;;;10.88;4.57;;;13.80;99.90;;;;;;5027408;28;20037;-72
2022/05/27 00:38:18;;;;;;;10.23;4.45;;;13.80;99.90;;;;;;5027718;28;20049;-72
2022/05/27 00:40:49;;;;;;;8.88;4.68;;;13.70;99.90;;;;;;5007280;28;20048;-72
2022/05/27 00:43:15;;;;;;;10.65;5.38;;;13.70;99.90;;;;;;5018965;28;20045;-72
2022/05/27 00:45:43;;;;;;;9.85;4.97;;;13.70;99.90;;;;;;5010655;28;20038;-72
2022/05/27 00:48:15;;;;;;;10.73;4.68;;;13.70;99.90;;;;;;5011288;28;20049;-73
2022/05/27 00:50:44;;;;;;;10.73;5.20;;;13.70;99.90;;;;;;5026728;28;20045;-72
2022/05/27 00:53:13;;;;;;;11.15;6.18;;;13.70;99.90;;;;;;5026982;28;20052;-73
2022/05/27 00:55:57;;;;;;;13.50;6.53;;;13.70;99.90;;;;;;5027800;28;20045;-72
2022/05/27 00:58:29;;;;;;;12.32;6.30;;;13.70;99.90;;;;;;5043087;28;20077;-72
2022/05/27 01:00:55;;;;;;;9.38;5.68;;;13.70;99.90;;;;;;5011126;28;20399;-74
2022/05/27 01:03:24;;;;;;;12.30;5.00;;;13.70;99.90;;;;;;5023755;28;20049;-72
2022/05/27 01:05:50;;;;;;;10.37;5.50;;;13.70;99.90;;;;;;5026999;28;20535;-72
2022/05/27 01:08:18;;;;;;;13.13;6.05;;;13.60;99.90;;;;;;5011118;28;20042;-72
2022/05/27 01:10:59;;;;;;;15.55;6.10;;;13.60;99.90;;;;;;5010674;28;20385;-72
2022/05/27 01:13:31;;;;;;;14.80;7.40;;;13.60;99.90;;;;;;5008317;28;20041;-71
2022/05/27 01:15:59;;;;;;;9.90;5.10;;;13.60;99.90;;;;;;5010634;28;20126;-72
2022/05/27 01:22:24;;;;;;;12.35;6.10;;;13.60;99.90;;;;;;5026514;28;20049;-71
2022/05/27 01:25:28;;;;;;;14.90;6.78;;;13.60;99.90;;;;;;5024380;28;20457;-71
2022/05/27 01:28:18;;;;;;;17.13;6.10;;;13.60;99.90;;;;;;5025942;28;20045;-72
2022/05/27 01:31:02;;;;;;;11.65;5.30;;;13.50;99.90;;;;;;5007101;28;20064;-72
2022/05/27 01:33:50;;;;;;;10.45;5.03;;;13.50;99.90;;;;;;5026892;28;20059;-73
2022/05/27 01:36:39;;;;;;;12.50;5.38;;;13.50;99.90;;;;;;5025409;28;20037;-73
2022/05/27 01:39:27;;;;;;;14.80;5.40;;;13.40;99.90;;;;;;5025341;28;20046;-72
2022/05/27 01:42:07;;;;;;;15.23;5.40;;;13.40;99.90;;;;;;5026593;28;20057;-73
2022/05/27 01:44:48;;;;;;;13.35;4.93;;;13.40;99.90;;;;;;5042432;28;20119;-72
2022/05/27 01:47:43;;;;;;;13.35;4.70;;;13.40;99.90;;;;;;5026454;28;20574;-72
2022/05/27 01:50:34;;;;;;;15.18;5.15;;;13.40;99.90;;;;;;5001523;28;20088;-72
2022/05/27 01:53:29;;;;;;;14.65;4.78;;;13.30;99.90;;;;;;5010247;28;20056;-72
2022/05/27 01:56:11;;;;;;;17.13;5.43;;;13.30;99.90;;;;;;5025871;28;20060;-72
2022/05/27 01:59:30;;;;;;;19.75;5.97;;;13.30;99.90;;;;;;5026701;28;20064;-72
2022/05/27 02:02:21;;;;;;;16.95;5.18;;;13.30;99.90;;;;;;4984884;28;20057;-73
2022/05/27 02:05:02;;;;;;;11.18;4.90;;;13.30;99.90;;;;;;5008072;28;20058;-73
2022/05/27 02:07:45;;;;;;;13.38;4.65;;;13.20;99.90;;;;;;5024645;28;20060;-73
2022/05/27 02:10:26;;;;;;;18.60;5.47;;;13.30;99.90;;;;;;5008096;28;20137;-72
2022/05/27 02:13:01;;;;;;;20.38;5.80;;;13.20;99.90;;;;;;5001848;28;20081;-73
2022/05/27 02:15:31;;;;;;;14.45;4.85;;;13.20;99.90;;;;;;5011297;28;20140;-72
2022/05/27 02:18:04;;;;;;;19.92;5.25;;;13.10;99.90;;;;;;5028422;28;20061;-72
2022/05/27 02:20:38;;;;;;;14.35;4.10;;;13.10;99.90;;;;;;5027905;28;20041;-72
2022/05/27 02:23:21;;;;;;;16.42;5.35;;;13.10;99.90;;;;;;5027794;28;20054;-73
2022/05/27 02:25:51;;;;;;;10.23;3.85;;;13.10;99.90;;;;;;5027791;28;20060;-73
2022/05/27 02:28:26;;;;;;;15.18;4.38;;;13.00;99.90;;;;;;5027943;28;20053;-73
2022/05/27 02:31:04;;;;;;;12.10;3.95;;;13.00;99.90;;;;;;5022126;28;20060;-73
2022/05/27 02:36:46;;;;;;;14.88;4.75;;;12.90;99.90;;;;;;5008129;28;20085;-73
2022/05/27 02:39:12;;;;;;;12.35;4.45;;;12.90;99.90;;;;;;5021595;28;20080;-73
2022/05/27 02:41:57;;;;;;;12.82;4.53;;;12.80;99.90;;;;;;5015762;28;20468;-73
2022/05/27 02:44:47;;;;;;;13.88;4.65;;;12.70;99.90;;;;;;5025277;28;20045;-73
2022/05/27 02:47:37;;;;;;;11.75;4.63;;;12.70;99.90;;;;;;5010198;28;20045;-73
2022/05/27 02:50:19;;;;;;;13.10;4.68;;;12.70;99.90;;;;;;5027133;28;20594;-73
2022/05/27 02:53:07;;;;;;;13.77;4.53;;;12.60;99.90;;;;;;5026617;28;20107;-73
2022/05/27 02:56:06;;;;;;;17.02;5.30;;;12.50;99.90;;;;;;5026845;28;20475;-73
2022/05/27 02:58:32;;;;;;;20.40;6.30;;;12.50;99.90;;;;;;5010350;28;20491;-73
2022/05/27 03:00:58;;;;;;;15.68;4.43;;;12.50;99.90;;;;;;5010617;28;20072;-73
2022/05/27 03:03:24;;;;;;;13.07;4.47;;;12.50;99.90;;;;;;5005917;28;20539;-73
2022/05/27 03:05:59;;;;;;;11.15;4.13;;;12.50;99.90;;;;;;5007175;28;20041;-73
2022/05/27 03:08:37;;;;;;;15.70;4.68;;;12.50;99.90;;;;;;4990943;28;20045;-73
2022/05/27 03:11:15;;;;;;;13.10;4.82;;;12.50;99.90;;;;;;5023851;28;20425;-73
2022/05/27 03:13:41;;;;;;;15.93;5.25;;;12.50;99.90;;;;;;5024324;28;20038;-73
2022/05/27 03:16:35;;;;;;;16.75;4.93;;;12.50;99.90;;;;;;5013164;28;20495;-73
2022/05/27 03:19:47;;;;;;;16.95;4.95;;;12.50;99.90;;;;;;5030814;28;20049;-73
2022/05/27 03:22:28;;;;;;;19.85;5.10;;;12.40;99.90;;;;;;5012018;28;20080;-73
2022/05/27 03:25:10;;;;;;;16.17;5.78;;;12.40;99.90;;;;;;5011088;28;20050;-73
2022/05/27 03:27:56;;;;;;;13.77;4.38;;;12.40;99.90;;;;;;5020393;28;20128;-73
2022/05/27 03:30:34;;;;;;;14.98;5.03;;;12.40;99.90;;;;;;5029385;28;20132;-73
2022/05/27 03:33:12;;;;;;;20.58;6.03;;;12.30;99.90;;;;;;5011787;28;20568;-73
2022/05/27 03:35:55;;;;;;;22.30;5.72;;;12.30;99.90;;;;;;5014291;28;20049;-73
2022/05/27 03:38:39;;;;;;;18.08;5.45;;;12.30;99.90;;;;;;5030458;28;20041;-73
2022/05/27 03:41:17;;;;;;;18.38;6.32;;;12.30;99.90;;;;;;5030312;28;20057;-73
2022/05/27 03:43:44;;;;;;;21.80;6.28;;;12.30;99.90;;;;;;5016120;28;20041;-73
2022/05/27 03:46:11;;;;;;;14.52;4.97;;;12.30;99.90;;;;;;5015806;28;20037;-73
2022/05/27 03:48:37;;;;;;;12.93;4.63;;;12.30;99.90;;;;;;5014772;28;20077;-73
2022/05/27 03:51:09;;;;;;;20.35;6.30;;;12.30;99.90;;;;;;5014328;28;20037;-73
2022/05/27 03:56:19;;;;;;;12.85;4.90;;;12.30;99.90;;;;;;5030728;28;20057;-73
2022/05/27 03:58:45;;;;;;;20.40;6.22;;;12.30;99.90;;;;;;5014510;28;20075;-72
2022/05/27 04:01:11;;;;;;;14.50;5.13;;;12.30;99.90;;;;;;5011923;28;20049;-72
2022/05/27 04:03:37;;;;;;;17.98;5.55;;;12.40;99.90;;;;;;5016959;28;20100;-72
2022/05/27 04:06:03;;;;;;;13.48;4.97;;;12.40;99.90;;;;;;5010639;28;20042;-73
2022/05/27 04:08:29;;;;;;;21.27;6.25;;;12.40;99.90;;;;;;5010995;28;20054;-73
2022/05/27 04:10:55;;;;;;;21.92;5.93;;;12.50;99.90;;;;;;4994182;28;20072;-72
2022/05/27 04:13:20;;;;;;;18.42;5.82;;;12.50;99.90;;;;;;5026335;28;20049;-72
2022/05/27 04:15:46;;;;;;;17.20;5.70;;;12.50;99.90;;;;;;5010645;28;20703;-73
2022/05/27 04:18:12;;;;;;;21.30;6.30;;;12.50;99.90;;;;;;5010787;28;20131;-72
2022/05/27 04:20:38;;;;;;;15.40;5.25;;;12.50;99.90;;;;;;4993738;28;20141;-72
2022/05/27 04:23:04;;;;;;;18.30;5.70;;;12.50;99.90;;;;;;5009534;28;20472;-73
2022/05/27 04:25:30;;;;;;;13.00;5.80;;;12.50;99.90;;;;;;5026176;28;20141;-72
2022/05/27 04:27:55;;;;;;;21.17;6.30;;;12.60;99.90;;;;;;5009960;28;20048;-72
2022/05/27 04:30:23;;;;;;;12.50;5.25;;;12.60;99.90;;;;;;5005909;28;20073;-73
2022/05/27 04:32:49;;;;;;;16.52;4.85;;;12.60;99.90;;;;;;4993877;28;20046;-73
2022/05/27 04:35:15;;;;;;;13.95;5.45;;;12.60;99.90;;;;;;5012457;28;20057;-73
2022/05/27 04:37:40;;;;;;;17.42;5.70;;;12.60;99.90;;;;;;5013228;28;20056;-72
2022/05/27 04:40:07;;;;;;;20.58;5.78;;;12.60;99.90;;;;;;5013231;28;20080;-72
2022/05/27 04:42:33;;;;;;;15.43;4.82;;;12.60;99.90;;;;;;4991921;28;20096;-72
2022/05/27 04:44:59;;;;;;;18.17;5.20;;;12.60;99.90;;;;;;5025731;28;20054;-73
2022/05/27 04:47:25;;;;;;;15.43;4.78;;;12.60;99.90;;;;;;5022138;28;20042;-72
2022/05/27 04:49:51;;;;;;;17.38;5.45;;;12.60;99.90;;;;;;5039327;28;20033;-73
2022/05/27 04:52:37;;;;;;;19.08;5.53;;;12.60;99.90;;;;;;4998543;28;20838;-73
2022/05/27 04:55:09;;;;;;;18.25;5.10;;;12.60;99.90;;;;;;5007317;28;20053;-72
2022/05/27 04:57:38;;;;;;;19.42;4.10;;;12.50;99.90;;;;;;5045501;28;20052;-72
2022/05/27 05:00:14;;;;;;;18.53;4.93;;;12.50;99.90;;;;;;5027765;28;20048;-73
2022/05/27 05:02:41;;;;;;;13.45;4.13;;;12.50;99.90;;;;;;5013838;28;20045;-72
2022/05/27 05:05:08;;;;;;;12.70;3.60;;;12.50;99.90;;;;;;5025827;28;20121;-72
2022/05/27 05:07:35;;;;;;;14.85;4.32;;;12.50;99.90;;;;;;5028729;28;20041;-73
2022/05/27 05:10:01;;;;;;;17.98;4.13;;;12.50;99.90;;;;;;5028565;28;20052;-72
2022/05/27 05:12:27;;;;;;;11.52;3.70;;;12.50;99.90;;;;;;5024879;28;20056;-73
2022/05/27 05:14:54;;;;;;;13.80;4.10;;;12.50;99.90;;;;;;4992971;28;20034;-73
2022/05/27 05:17:21;;;;;;;19.15;4.85;;;12.50;99.90;;;;;;5025214;28;20108;-72
2022/05/27 05:19:48;;;;;;;13.20;3.70;;;12.60;99.90;;;;;;5028530;28;20064;-73
2022/05/27 05:22:14;;;;;;;16.95;4.25;;;12.60;99.90;;;;;;5028364;28;20085;-73
2022/05/27 05:24:40;;;;;;;11.35;4.38;;;12.60;99.90;;;;;;5028660;28;20050;-73
2022/05/27 05:27:06;;;;;;;13.32;4.35;;;12.60;99.90;;;;;;5028363;28;20052;-73
2022/05/27 05:29:32;;;;;;;14.60;3.97;;;12.70;99.90;;;;;;5012244;28;20049;-73
2022/05/27 05:31:57;;;;;;;16.25;4.10;;;12.80;99.90;;;;;;5012126;28;20037;-72
2022/05/27 05:34:23;;;;;;;15.10;3.63;;;12.80;99.90;;;;;;5011521;28;20573;-73
2022/05/27 05:36:49;;;;;;;12.52;3.42;;;12.80;99.90;;;;;;4995359;28;20049;-73
2022/05/27 05:39:14;;;;;;;15.82;3.97;;;12.80;99.90;;;;;;5027420;28;20046;-73
2022/05/27 05:41:41;;;;;;;10.48;3.10;;;12.80;99.90;;;;;;5023827;28;20049;-73
2022/05/27 05:44:09;;;;;;;11.27;3.63;;;12.90;99.90;;;;;;5001511;28;20727;-73
2022/05/27 05:46:37;;;;;;;17.83;3.85;;;12.90;99.90;;;;;;4999318;28;20121;-73
2022/05/27 05:49:06;;;;;;;16.95;4.43;;;13.00;99.90;;;;;;5027477;28;20056;-73
2022/05/27 05:51:32;;;;;;;15.55;3.33;;;13.00;99.90;;;;;;5026709;28;20045;-73
2022/05/27 05:53:58;;;;;;;12.00;3.05;;;13.10;99.90;;;;;;5018056;28;20053;-72
2022/05/27 05:56:24;;;;;;;13.57;3.90;;;13.10;99.90;;;;;;4990611;28;20057;-73
2022/05/27 05:58:50;;;;;;;11.68;3.50;;;13.10;99.90;;;;;;5007700;28;20404;-72
2022/05/27 06:01:17;;;;;;;14.70;3.40;;;13.10;99.90;;;;;;5008901;28;20050;-72
2022/05/27 06:03:46;;;;;;;15.05;3.70;;;13.10;99.90;;;;;;5005809;28;20060;-72
2022/05/27 06:06:12;;;;;;;16.05;4.13;;;13.00;99.90;;;;;;5011443;28;20040;-72
2022/05/27 06:08:39;;;;;;;12.30;4.05;;;13.00;99.90;;;;;;5028135;28;20197;-73
2022/05/27 06:11:07;;;;;;;13.38;3.65;;;13.10;99.90;;;;;;4995430;28;20033;-73
2022/05/27 06:13:35;;;;;;;13.60;3.63;;;13.10;99.90;;;;;;5023291;28;20100;-73
2022/05/27 06:16:02;;;;;;;12.50;3.50;;;13.10;99.90;;;;;;4992022;28;20069;-72
2022/05/27 06:18:29;;;;;;;16.83;4.18;;;13.10;99.90;;;;;;5008067;28;20399;-72
2022/05/27 06:20:54;;;;;;;16.95;4.20;;;13.20;99.90;;;;;;5021155;28;20049;-73
2022/05/27 06:23:21;;;;;;;17.95;3.47;;;13.20;99.90;;;;;;4994663;28;20076;-72
2022/05/27 06:25:56;;;;;;;12.95;3.50;;;13.10;99.90;;;;;;4994874;28;20504;-72
2022/05/27 06:36:36;;;;;;;12.63;3.65;;;13.30;99.90;;;;;;5013591;28;20049;-72
2022/05/27 06:39:07;;;;;;;13.10;4.03;;;13.30;99.90;;;;;;5010926;28;20051;-72
2022/05/27 06:41:34;;;;;;;12.50;3.58;;;13.40;99.90;;;;;;5011086;28;20060;-72
2022/05/27 06:44:00;;;;;;;13.38;3.20;;;13.40;99.90;;;;;;5018615;28;20045;-73
2022/05/27 06:46:26;;;;;;;14.20;3.70;;;13.50;99.90;;;;;;5018599;28;20044;-71
2022/05/27 06:48:52;;;;;;;14.95;3.65;;;13.50;99.90;;;;;;5006282;28;20049;-72
2022/05/27 06:51:18;;;;;;;13.57;3.67;;;13.60;99.90;;;;;;5017854;28;20056;-73
2022/05/27 06:53:45;;;;;;;14.27;3.85;;;13.60;99.90;;;;;;4989479;28;20049;-72
2022/05/27 06:56:14;;;;;;;14.88;4.15;;;13.70;99.90;;;;;;5025701;28;20041;-72
2022/05/27 06:58:40;;;;;;;12.68;3.47;;;13.80;99.90;;;;;;5025946;28;20079;-71
2022/05/27 07:01:07;;;;;;;13.02;3.78;;;13.90;99.90;;;;;;5025358;28;20384;-71
2022/05/27 07:03:37;;;;;;;12.18;3.15;;;13.90;99.90;;;;;;4993235;28;20446;-72
2022/05/27 07:06:05;;;;;;;13.00;3.05;;;13.80;99.90;;;;;;5025289;28;20065;-71
2022/05/27 07:08:31;;;;;;;9.93;2.72;;;13.80;99.90;;;;;;5025186;28;21609;-71
2022/05/27 07:10:57;;;;;;;12.90;3.28;;;13.80;99.90;;;;;;5009308;28;20053;-72
2022/05/27 07:13:22;;;;;;;10.88;3.47;;;13.90;99.90;;;;;;5018347;28;20602;-72
2022/05/27 07:15:48;;;;;;;13.65;3.63;;;14.00;99.90;;;;;;5019246;28;20045;-71
2022/05/27 07:18:17;;;;;;;12.77;3.58;;;14.10;99.90;;;;;;5019819;28;20621;-71
2022/05/27 07:20:46;;;;;;;12.13;3.05;;;14.30;99.90;;;;;;5021201;28;20045;-70
2022/05/27 07:23:12;;;;;;;13.05;3.78;;;14.40;99.90;;;;;;5006285;28;20054;-70
2022/05/27 07:25:38;;;;;;;11.48;2.92;;;14.50;99.90;;;;;;5015512;28;21080;-70
2022/05/27 07:28:08;;;;;;;13.57;3.00;;;14.60;99.90;;;;;;5020398;28;20112;-70
2022/05/27 07:30:35;;;;;;;11.57;3.00;;;14.60;99.90;;;;;;5015331;28;20076;-72
2022/05/27 07:33:01;;;;;;;16.17;3.70;;;14.60;99.90;;;;;;5034638;28;20038;-70
2022/05/27 07:35:27;;;;;;;16.30;3.53;;;14.50;99.90;;;;;;5013000;28;20073;-70
2022/05/27 07:37:53;;;;;;;10.85;2.53;;;14.40;99.90;;;;;;5017773;28;20077;-71
2022/05/27 07:40:20;;;;;;;13.25;3.25;;;14.50;99.90;;;;;;5014814;28;20049;-72
2022/05/27 07:42:47;;;;;;;14.50;3.58;;;14.60;99.90;;;;;;5014981;28;20052;-71
2022/05/27 07:45:14;;;;;;;12.10;2.72;;;14.60;99.90;;;;;;5016336;28;20528;-72
2022/05/27 07:47:40;;;;;;;11.63;3.05;;;14.70;99.90;;;;;;5031900;28;20565;-72
2022/05/27 07:50:08;;;;;;;10.80;4.15;;;14.90;99.90;;;;;;5018676;28;20033;-72
2022/05/27 07:52:34;;;;;;;8.68;2.78;;;15.00;99.90;;;;;;5015317;28;20045;-71
2022/05/27 07:55:01;;;;;;;11.23;3.45;;;15.00;99.90;;;;;;5019149;28;20258;-72
2022/05/27 07:57:28;;;;;;;12.50;3.35;;;15.00;99.90;;;;;;5018908;28;20473;-72
2022/05/27 07:59:54;;;;;;;10.35;2.65;;;14.80;99.90;;;;;;5023395;28;20385;-72
2022/05/27 08:02:21;;;;;;;11.95;3.47;;;14.80;99.90;;;;;;5021565;28;20052;-72
2022/05/27 08:04:47;;;;;;;13.10;3.22;;;14.80;99.90;;;;;;4989631;28;20127;-72
2022/05/27 08:07:13;;;;;;;11.10;3.30;;;14.90;99.90;;;;;;5022396;28;20531;-71
2022/05/27 08:09:40;;;;;;;12.80;2.92;;;15.10;99.90;;;;;;5021695;28;20084;-71
2022/05/27 08:12:06;;;;;;;12.82;3.10;;;15.30;99.90;;;;;;5008800;28;20050;-72
2022/05/27 08:14:32;;;;;;;12.27;2.63;;;15.40;99.90;;;;;;5022884;28;20504;-72
2022/05/27 08:16:59;;;;;;;11.13;2.70;;;15.50;99.90;;;;;;5022991;28;20104;-71
2022/05/27 08:19:25;;;;;;;12.32;3.05;;;15.40;99.90;;;;;;5037161;28;20076;-71
2022/05/27 08:21:51;;;;;;;12.73;2.75;;;15.30;99.90;;;;;;5021272;28;20053;-71
2022/05/27 08:24:17;;;;;;;14.15;2.70;;;15.40;99.90;;;;;;5022119;28;20050;-72
2022/05/27 08:26:49;;;;;;;9.25;2.20;;;15.60;99.90;;;;;;5007650;28;20034;-72
2022/05/27 08:29:16;;;;;;;9.10;2.30;;;15.70;99.90;;;;;;5010578;28;20073;-71
2022/05/27 08:31:41;;;;;;;10.90;2.42;;;15.70;99.90;;;;;;5006799;28;20041;-72
2022/05/27 08:39:46;;;;;;;13.07;3.17;;;15.80;99.90;;;;;;5020233;28;20050;-72
2022/05/27 08:42:45;;;;;;;9.50;2.45;;;15.90;99.90;;;;;;5003944;28;20077;-71
2022/05/27 08:45:14;;;;;;;14.15;3.88;;;15.80;99.90;;;;;;5037702;28;20045;-71
2022/05/27 08:47:49;;;;;;;10.80;3.10;;;15.70;99.90;;;;;;5036232;28;20124;-72
2022/05/27 08:50:45;;;;;;;11.60;2.67;;;15.80;99.90;;;;;;5021487;28;20644;-72
2022/05/27 08:53:17;;;;;;;16.30;3.47;;;15.70;99.90;;;;;;5006815;28;20046;-71
2022/05/27 09:01:33;;;;;;;10.38;2.85;;;15.80;99.90;;;;;;5024551;28;20057;-71
2022/05/27 09:04:38;;;;;;;11.73;3.10;;;16.00;99.90;;;;;;5024446;28;20128;-70
2022/05/27 09:07:13;;;;;;;17.55;3.40;;;16.20;99.90;;;;;;5018064;28;20636;-71
2022/05/27 09:09:39;;;;;;;11.38;3.10;;;16.40;99.90;;;;;;5007695;28;20033;-72
2022/05/27 09:12:26;;;;;;;12.13;2.90;;;16.60;99.90;;;;;;5019164;28;20045;-72
2022/05/27 09:15:02;;;;;;;12.93;3.47;;;16.70;99.90;;;;;;5013806;28;20391;-71
2022/05/27 09:17:54;;;;;;;11.23;3.08;;;16.80;99.90;;;;;;5022870;28;20041;-71
2022/05/27 09:20:52;;;;;;;10.95;2.80;;;16.70;99.90;;;;;;5007289;28;20493;-71
2022/05/27 09:23:37;;;;;;;10.05;2.22;;;16.70;99.90;;;;;;5032568;28;20419;-72
2022/05/27 09:26:15;;;;;;;9.23;2.10;;;16.90;99.90;;;;;;5021079;28;20041;-71
2022/05/27 09:29:03;;;;;;;8.05;2.25;;;17.00;99.90;;;;;;5026815;28;20444;-72
2022/05/27 09:31:35;;;;;;;18.58;2.85;;;17.00;99.90;;;;;;5008307;28;20037;-71
2022/05/27 09:34:01;;;;;;;8.50;2.17;;;16.80;99.90;;;;;;5011088;28;20047;-71
2022/05/27 09:36:36;;;;;;;9.35;3.00;;;16.50;97.50;;;;;;5024466;28;20241;-73
2022/05/27 09:39:10;;;;;;;11.68;2.50;;;16.40;99.90;;;;;;5008093;28;20404;-73
2022/05/27 09:41:52;;;;;;;15.23;2.50;;;16.50;99.90;;;;;;5026536;28;20119;-71
2022/05/27 09:44:48;;;;;;;10.15;2.38;;;16.50;99.90;;;;;;5024673;28;20132;-71
2022/05/27 09:47:16;;;;;;;11.63;2.63;;;16.50;99.90;;;;;;5008073;28;20053;-71
2022/05/27 09:49:44;;;;;;;11.10;2.13;;;16.60;99.90;;;;;;5010221;28;20045;-70
2022/05/27 09:52:10;;;;;;;11.48;3.05;;;16.70;99.90;;;;;;5009834;28;20128;-72
2022/05/27 09:54:52;;;;;;;11.32;2.60;;;16.80;99.90;;;;;;4993597;28;20474;-73
2022/05/27 09:57:25;;;;;;;10.98;2.60;;;17.00;98.70;;;;;;5024012;28;20055;-72
2022/05/27 10:00:00;;;;;;;7.93;2.22;;;17.00;98.80;;;;;;4999021;28;20362;-71
2022/05/27 10:02:38;;;;;;;12.52;2.75;;;16.80;98.00;;;;;;5028330;28;20470;-71
2022/05/27 10:05:16;;;;;;;11.18;2.50;;;16.80;99.70;;;;;;5011209;28;20069;-72
2022/05/27 10:07:49;;;;;;;17.23;3.53;;;16.80;99.90;;;;;;5006206;28;20042;-71
2022/05/27 10:10:21;;;;;;;10.90;2.70;;;16.60;99.90;;;;;;5017914;28;20045;-71
2022/05/27 10:12:48;;;;;;;10.85;2.20;;;16.30;99.60;;;;;;5018066;28;20396;-73
2022/05/27 10:15:23;;;;;;;9.77;2.33;;;16.10;99.90;;;;;;5013538;28;20076;-71
2022/05/27 10:17:48;;;;;;;10.88;3.88;;;16.20;99.90;;;;;;5026181;28;20046;-71
2022/05/27 10:20:34;;;;;;;11.88;2.58;;;16.50;99.90;;;;;;5011141;28;20424;-71
2022/05/27 10:23:10;;;;;;;10.70;2.50;;;16.80;99.90;;;;;;5023557;28;20057;-72
2022/05/27 10:25:42;;;;;;;8.07;2.13;;;16.90;99.90;;;;;;5034962;28;20046;-71
2022/05/27 10:28:10;;;;;;;10.18;2.30;;;17.00;99.90;;;;;;4996689;28;20096;-72
2022/05/27 10:30:50;;;;;;;13.52;2.45;;;16.90;99.90;;;;;;5026149;28;20049;-72
2022/05/27 10:33:34;;;;;;;9.88;2.20;;;16.90;98.10;;;;;;5014013;28;20053;-71
2022/05/27 10:36:01;;;;;;;10.50;2.70;;;16.80;97.90;;;;;;5024930;28;20057;-71
2022/05/27 10:38:53;;;;;;;11.63;3.33;;;16.70;99.90;;;;;;4994191;28;20049;-72
2022/05/27 10:41:30;;;;;;;12.15;2.70;;;16.70;99.70;;;;;;5025841;28;20060;-72
2022/05/27 10:44:45;;;;;;;10.07;2.40;;;16.50;99.90;;;;;;5034820;28;20183;-72
2022/05/27 10:47:35;;;;;;;9.70;2.13;;;16.60;99.70;;;;;;5020670;28;20518;-72
2022/05/27 10:50:14;;;;;;;8.88;2.28;;;16.60;99.90;;;;;;5020382;28;20046;-72
2022/05/27 10:53:04;;;;;;;10.48;2.80;;;16.70;98.80;;;;;;5024341;28;20713;-71
2022/05/27 10:55:37;;;;;;;8.32;2.22;;;16.50;98.50;;;;;;5033288;28;20054;-73
2022/05/27 11:04:34;;;;;;;9.10;2.60;;;16.40;99.90;;;;;;5005599;28;20148;-72
2022/05/27 11:07:00;;;;;;;14.50;2.85;;;16.50;99.90;;;;;;5020833;28;20071;-72
2022/05/27 11:10:03;;;;;;;14.38;3.45;;;16.70;99.90;;;;;;5025627;28;20132;-75
2022/05/27 11:16:04;;;;;;;8.63;2.22;;;17.30;99.50;;;;;;5004667;28;20053;-70
2022/05/27 11:18:54;;;;;;;11.93;2.50;;;17.50;98.20;;;;;;5025409;28;20443;-71
2022/05/27 11:21:25;;;;;;;11.73;2.60;;;17.40;96.20;;;;;;5024884;28;20113;-71
2022/05/27 11:24:09;;;;;;;11.75;3.05;;;17.10;97.80;;;;;;5039320;28;20058;-71
2022/05/27 11:26:35;;;;;;;14.88;2.67;;;17.00;99.90;;;;;;5022905;28;20053;-72
2022/05/27 11:29:04;;;;;;;13.05;3.83;;;17.10;99.90;;;;;;5024086;28;20095;-71
2022/05/27 11:31:55;;;;;;;14.05;2.80;;;17.20;98.30;;;;;;5007467;28;20046;-71
2022/05/27 11:34:30;;;;;;;9.45;2.60;;;17.30;99.90;;;;;;5025459;28;20061;-72
2022/05/27 11:37:15;;;;;;;10.07;2.53;;;17.30;99.90;;;;;;5025435;28;20053;-71
2022/05/27 11:40:09;;;;;;;9.60;2.40;;;17.20;97.60;;;;;;5028630;28;20041;-72
2022/05/27 11:43:05;;;;;;;9.57;2.35;;;17.10;96.20;;;;;;5008592;28;20076;-71
2022/05/27 11:45:32;;;;;;;10.98;3.05;;;16.80;96.90;;;;;;5029084;28;20133;-72
2022/05/27 11:48:02;;;;;;;12.68;2.45;;;16.50;97.20;;;;;;5009629;28;20049;-72
2022/05/27 11:51:12;;;;;;;11.77;2.95;;;16.60;99.90;;;;;;5028755;28;20051;-72
2022/05/27 11:53:38;;;;;;;12.25;2.63;;;16.90;99.90;;;;;;4975521;28;20140;-72
2022/05/27 11:56:11;;;;;;;8.70;2.17;;;16.90;98.00;;;;;;5028586;28;20448;-72
2022/05/27 11:58:47;;;;;;;12.32;2.40;;;16.60;97.60;;;;;;5012816;28;20049;-71
2022/05/27 12:01:35;;;;;;;13.95;3.42;;;16.40;99.90;;;;;;5029420;28;20139;-72
2022/05/27 12:04:06;;;;;;;10.95;2.95;;;16.40;99.90;;;;;;5025766;28;20084;-71
2022/05/27 12:07:01;;;;;;;11.82;2.90;;;16.60;99.90;;;;;;5026206;28;20044;-72
2022/05/27 12:09:56;;;;;;;12.82;2.85;;;16.90;99.90;;;;;;5010703;28;20487;-71
2022/05/27 12:12:31;;;;;;;12.00;2.20;;;17.10;99.90;;;;;;4979219;28;20085;-72
2022/05/27 12:15:10;;;;;;;11.50;2.67;;;16.90;99.90;;;;;;5028306;28;20077;-71
2022/05/27 12:17:44;;;;;;;9.27;2.35;;;17.00;99.90;;;;;;5026309;28;20526;-70
2022/05/27 12:20:33;;;;;;;10.95;2.60;;;17.10;99.90;;;;;;5027444;28;20042;-71
2022/05/27 12:23:04;;;;;;;12.90;2.60;;;17.10;98.00;;;;;;5011113;28;20500;-72
2022/05/27 12:25:34;;;;;;;13.02;3.03;;;17.10;97.10;;;;;;5028329;28;20049;-71
2022/05/27 12:28:02;;;;;;;13.00;3.13;;;17.00;98.40;;;;;;5027949;28;20156;-71
2022/05/27 12:30:39;;;;;;;11.77;2.80;;;16.80;99.10;;;;;;5024597;28;20046;-71
2022/05/27 12:33:06;;;;;;;11.98;2.75;;;16.60;97.40;;;;;;5027825;28;20053;-72
2022/05/27 12:35:32;;;;;;;13.02;2.83;;;16.60;99.60;;;;;;5011534;28;20380;-70
2022/05/27 12:38:13;;;;;;;11.73;2.47;;;16.60;99.90;;;;;;5028065;28;20083;-72
2022/05/27 12:41:03;;;;;;;11.75;2.75;;;16.50;99.80;;;;;;5011630;28;20053;-71
2022/05/27 12:43:53;;;;;;;13.77;2.78;;;16.40;99.90;;;;;;5027891;28;20479;-73
2022/05/27 12:46:23;;;;;;;;;;;16.50;99.90;;;;;;5023794;28;20038;-73
2022/05/27 12:48:49;;;;;;;12.38;3.05;;;16.70;99.90;;;;;;5038788;28;20516;-73
2022/05/27 12:51:15;;;;;;;13.77;2.78;;;16.80;99.90;;;;;;5006616;28;20046;-72
2022/05/27 12:53:52;;;;;;;13.00;3.17;;;17.10;99.90;;;;;;5024141;28;20557;-73
2022/05/27 13:02:14;;;;;;;15.75;3.10;;;17.50;97.50;;;;;;5023140;28;20053;-73
2022/05/27 13:04:42;;;;;;;13.43;2.58;;;17.30;96.50;;;;;;5040690;28;20088;-73
2022/05/27 13:07:09;;;;;;;12.82;2.65;;;17.20;97.70;;;;;;5026782;28;20107;-72
2022/05/27 13:09:42;;;;;;;13.30;2.45;;;17.10;99.90;;;;;;5011360;28;20053;-72
2022/05/27 13:12:11;;;;;;;12.48;2.65;;;17.30;99.90;;;;;;5026999;28;20057;-72
2022/05/27 13:14:49;;;;;;;13.55;2.67;;;17.40;99.00;;;;;;5024970;28;20051;-72
2022/05/27 13:17:31;;;;;;;11.35;2.70;;;17.40;98.70;;;;;;5025387;28;20079;-72
2022/05/27 13:20:07;;;;;;;10.48;2.55;;;17.30;98.60;;;;;;5043415;28;20060;-72
2022/05/27 13:22:58;;;;;;;15.05;2.83;;;17.20;98.10;;;;;;5026924;28;20052;-72
2022/05/27 13:25:42;;;;;;;13.82;2.92;;;17.10;99.60;;;;;;5003624;28;20361;-72
2022/05/27 13:28:31;;;;;;;14.65;3.05;;;16.90;98.80;;;;;;5024198;28;20088;-72
2022/05/27 13:31:03;;;;;;;14.60;3.08;;;16.70;99.90;;;;;;5027147;28;20270;-72
2022/05/27 13:33:41;;;;;;;14.23;2.85;;;16.60;99.90;;;;;;5009917;28;20045;-72
2022/05/27 13:36:22;;;;;;;12.05;2.55;;;16.50;99.90;;;;;;5027418;28;20441;-72
2022/05/27 13:39:16;;;;;;;12.95;2.72;;;16.40;99.90;;;;;;5024550;28;20119;-73
2022/05/27 13:41:48;;;;;;;11.90;2.78;;;16.30;99.80;;;;;;5024856;28;20048;-71
2022/05/27 13:44:18;;;;;;;10.40;2.92;;;16.50;99.90;;;;;;5003665;28;20057;-71
2022/05/27 13:46:50;;;;;;;10.68;2.60;;;16.50;98.10;;;;;;5014305;28;20707;-70
2022/05/27 13:49:39;;;;;;;10.40;2.20;;;16.40;99.90;;;;;;5008356;28;20442;-71
2022/05/27 13:52:19;;;;;;;10.93;2.53;;;16.20;99.90;;;;;;5006847;28;20080;-72
2022/05/27 13:54:44;;;;;;;11.00;2.80;;;16.00;99.90;;;;;;5037617;28;20540;-71
2022/05/27 13:57:19;;;;;;;13.10;3.10;;;15.90;99.90;;;;;;5010118;28;20080;-71